createdAt,value
2023-05-19T00:04:43.512Z,52.50
2023-05-19T00:09:52.079Z,52.54
2023-05-19T00:15:01.294Z,52.62
2023-05-19T00:20:12.184Z,52.73
2023-05-19T00:25:19.426Z,52.87
2023-05-19T00:30:27.021Z,52.97
2023-05-19T00:35:34.519Z,53.02
2023-05-19T00:40:41.785Z,53.17
2023-05-19T00:45:49.568Z,53.32
2023-05-19T00:51:02.498Z,53.30
2023-05-19T00:56:10.070Z,53.47
2023-05-19T01:01:17.525Z,53.59
2023-05-19T01:06:25.673Z,53.72
2023-05-19T01:11:32.827Z,53.78
2023-05-19T01:16:45.202Z,53.81
2023-05-19T01:22:13.937Z,53.88
2023-05-19T01:27:57.812Z,54.01
2023-05-19T01:33:08.408Z,54.20
2023-05-19T01:38:18.458Z,54.27
2023-05-19T01:43:27.715Z,54.18
2023-05-19T01:48:35.491Z,54.25
2023-05-19T01:53:42.738Z,54.31
2023-05-19T01:58:54.308Z,54.43
2023-05-19T02:04:21.720Z,54.60
2023-05-19T02:09:38.993Z,54.71
2023-05-19T02:14:51.256Z,54.82
2023-05-19T02:19:58.358Z,54.86
2023-05-19T02:25:05.874Z,55.00
2023-05-19T02:30:14.084Z,55.02
2023-05-19T02:35:19.807Z,55.06
2023-05-19T02:40:27.151Z,55.29
2023-05-19T02:45:35.480Z,55.34
2023-05-19T02:50:43.914Z,55.50
2023-05-19T02:55:51.582Z,55.62
2023-05-19T03:00:59.361Z,55.63
2023-05-19T03:06:08.845Z,55.66
2023-05-19T03:11:16.686Z,55.77
2023-05-19T03:16:24.633Z,55.86
2023-05-19T03:21:30.766Z,55.99
2023-05-19T03:26:37.894Z,56.24
2023-05-19T03:31:45.185Z,56.18
2023-05-19T03:36:53.398Z,56.29
2023-05-19T03:42:01.778Z,56.28
2023-05-19T03:47:11.669Z,56.41
2023-05-19T03:52:49.021Z,56.48
2023-05-19T03:58:10.790Z,56.50
2023-05-19T04:03:18.075Z,56.59
2023-05-19T04:08:25.220Z,56.59
2023-05-19T04:13:34.178Z,56.64
2023-05-19T04:18:41.378Z,56.72
2023-05-19T04:23:48.575Z,56.75
2023-05-19T04:28:56.711Z,56.74
2023-05-19T04:34:04.361Z,56.80
2023-05-19T04:39:12.533Z,56.65
2023-05-19T04:44:21.902Z,56.27
2023-05-19T04:49:30.230Z,56.19
2023-05-19T04:54:38.943Z,56.22
2023-05-19T04:59:47.370Z,56.51
2023-05-19T05:04:56.804Z,56.62
2023-05-19T05:10:07.939Z,56.18
2023-05-19T05:15:18.629Z,55.58
2023-05-19T05:20:28.156Z,55.36
2023-05-19T05:25:37.546Z,55.36
2023-05-19T05:30:45.123Z,55.35
2023-05-19T05:35:56.613Z,55.15
2023-05-19T05:41:05.274Z,54.59
2023-05-19T05:46:15.379Z,54.58
2023-05-19T05:51:24.908Z,54.42
2023-05-19T05:56:33.940Z,54.22
2023-05-19T06:01:42.236Z,53.95
2023-05-19T06:06:49.513Z,53.52
2023-05-19T06:12:01.301Z,53.35
2023-05-19T06:17:11.110Z,53.24
2023-05-19T06:22:18.293Z,53.22
2023-05-19T06:27:25.468Z,53.43
2023-05-19T06:32:33.156Z,53.46
2023-05-19T06:37:40.688Z,53.50
2023-05-19T06:42:48.236Z,53.59
2023-05-19T06:48:09.570Z,53.84
2023-05-19T06:53:18.430Z,53.93
2023-05-19T06:58:26.956Z,53.81
2023-05-19T07:03:34.615Z,53.86
2023-05-19T07:08:42.127Z,54.04
2023-05-19T07:13:50.165Z,54.16
2023-05-19T07:19:02.896Z,54.21
2023-05-19T07:24:10.747Z,54.29
2023-05-19T07:29:18.007Z,54.35
2023-05-19T07:34:25.212Z,54.43
2023-05-19T07:39:32.611Z,54.56
2023-05-19T07:44:39.785Z,54.51
2023-05-19T07:49:49.687Z,54.68
2023-05-19T07:54:58.195Z,54.71
2023-05-19T08:00:07.875Z,54.64
2023-05-19T08:05:18.881Z,54.61
2023-05-19T08:10:26.218Z,54.62
2023-05-19T08:15:36.723Z,54.70
2023-05-19T08:20:43.964Z,54.67
2023-05-19T08:25:51.224Z,54.69
2023-05-19T08:30:58.504Z,54.88
2023-05-19T08:36:06.749Z,54.99
2023-05-19T08:41:14.012Z,55.29
2023-05-19T08:46:23.096Z,55.22
2023-05-19T08:51:35.323Z,55.12
2023-05-19T08:56:44.357Z,55.16
2023-05-19T09:01:51.992Z,55.30
2023-05-19T09:07:02.966Z,55.31
2023-05-19T09:12:10.393Z,55.17
2023-05-19T09:17:19.265Z,55.12
2023-05-19T09:22:26.783Z,55.01
2023-05-19T09:27:35.491Z,55.26
2023-05-19T09:32:43.793Z,55.32
2023-05-19T09:37:51.261Z,55.37
2023-05-19T09:42:58.848Z,55.11
2023-05-19T09:48:09.844Z,55.15
2023-05-19T09:53:20.408Z,54.97
2023-05-19T09:58:28.122Z,54.99
2023-05-19T10:03:34.989Z,54.99
2023-05-19T10:08:43.702Z,55.09
2023-05-19T10:13:54.022Z,55.15
2023-05-19T10:19:03.698Z,55.15
2023-05-19T10:24:12.189Z,55.17
2023-05-19T10:29:24.271Z,55.28
2023-05-19T10:34:54.960Z,54.88
2023-05-19T10:40:08.906Z,54.92
2023-05-19T10:45:22.727Z,54.76
2023-05-19T10:50:36.702Z,54.71
2023-05-19T10:55:53.631Z,54.92
2023-05-19T11:01:08.423Z,54.94
2023-05-19T11:06:28.251Z,55.24
2023-05-19T11:11:49.002Z,55.56
2023-05-19T11:17:00.704Z,55.72
2023-05-19T11:22:15.144Z,55.91
2023-05-19T11:27:28.510Z,56.28
2023-05-19T11:32:39.423Z,56.56
2023-05-19T11:37:47.807Z,56.99
2023-05-19T11:42:54.982Z,57.14
2023-05-19T11:48:03.548Z,57.18
2023-05-19T11:53:13.178Z,57.76
2023-05-19T11:58:26.156Z,57.59
2023-05-19T12:03:33.432Z,57.66
2023-05-19T12:08:41.018Z,57.68
2023-05-19T12:13:48.692Z,57.65
2023-05-19T12:18:56.715Z,57.92
2023-05-19T12:24:04.470Z,57.93
2023-05-19T12:29:11.652Z,58.15
2023-05-19T12:34:19.089Z,58.39
2023-05-19T12:39:27.434Z,58.51
2023-05-19T12:44:40.733Z,58.73
2023-05-19T12:50:04.942Z,58.93
2023-05-19T12:55:13.138Z,59.12
2023-05-19T13:00:22.979Z,59.34
2023-05-19T13:05:31.393Z,59.48
2023-05-19T13:10:40.559Z,59.74
2023-05-19T13:15:49.455Z,59.68
2023-05-19T13:20:56.813Z,59.75
2023-05-19T13:26:05.180Z,59.96
2023-05-19T13:31:12.987Z,60.24
2023-05-19T13:36:20.121Z,60.47
2023-05-19T13:41:29.495Z,60.48
2023-05-19T13:46:45.301Z,60.72
2023-05-19T13:51:57.094Z,60.70
2023-05-19T13:57:04.183Z,60.69
2023-05-19T14:02:12.926Z,60.87
2023-05-19T14:07:20.417Z,60.89
2023-05-19T14:12:38.203Z,61.03
2023-05-19T14:17:54.666Z,61.03
2023-05-19T14:23:02.105Z,61.04
2023-05-19T14:28:11.169Z,61.21
2023-05-19T14:33:19.479Z,61.22
2023-05-19T14:38:27.704Z,61.34
2023-05-19T14:43:36.329Z,61.43
2023-05-19T14:48:43.306Z,61.50
2023-05-19T14:53:50.527Z,61.59
2023-05-19T14:58:57.854Z,61.80
2023-05-19T15:04:05.056Z,62.08
2023-05-19T15:09:14.736Z,62.21
2023-05-19T15:14:22.279Z,62.34
2023-05-19T15:19:29.310Z,62.39
2023-05-19T15:24:36.666Z,62.43
2023-05-19T15:29:45.088Z,62.43
2023-05-19T15:34:52.272Z,62.55
2023-05-19T15:39:59.404Z,62.76
2023-05-19T15:45:09.197Z,63.02
2023-05-19T15:50:16.999Z,63.21
2023-05-19T15:55:22.665Z,63.12
2023-05-19T16:00:29.751Z,63.27
2023-05-19T16:05:37.031Z,63.38
2023-05-19T16:10:44.039Z,63.38
2023-05-19T16:15:51.158Z,63.42
2023-05-19T16:20:58.555Z,63.52
2023-05-19T16:26:05.960Z,63.54
2023-05-19T16:31:13.163Z,63.76
2023-05-19T16:36:22.996Z,63.77
2023-05-19T16:41:35.579Z,63.78
2023-05-19T16:46:42.780Z,63.85
2023-05-19T16:51:50.315Z,63.87
2023-05-19T16:56:57.673Z,63.95
2023-05-19T17:02:04.894Z,63.89
2023-05-19T17:07:15.994Z,64.11
2023-05-19T17:12:26.560Z,64.15
2023-05-19T17:17:33.832Z,64.23
2023-05-19T17:22:41.242Z,64.18
2023-05-19T17:27:48.423Z,64.23
2023-05-19T17:32:59.863Z,64.25
2023-05-19T17:38:07.212Z,64.16
2023-05-19T17:43:14.412Z,64.24
2023-05-19T17:48:21.598Z,64.36
2023-05-19T17:53:30.065Z,64.25
2023-05-19T17:58:38.570Z,64.22
2023-05-19T18:03:49.800Z,64.12
2023-05-19T18:08:59.469Z,64.08
2023-05-19T18:14:06.880Z,63.98
2023-05-19T18:19:14.163Z,64.02
2023-05-19T18:24:24.989Z,64.12
2023-05-19T18:29:32.248Z,63.98
2023-05-19T18:34:39.538Z,64.04
2023-05-19T18:39:46.701Z,64.12
2023-05-19T18:44:54.117Z,64.23
2023-05-19T18:50:01.968Z,64.39
2023-05-19T18:55:08.847Z,64.49
2023-05-19T19:00:19.079Z,64.62
2023-05-19T19:05:26.907Z,64.71
2023-05-19T19:10:39.207Z,64.92
2023-05-19T19:15:46.885Z,64.82
2023-05-19T19:20:55.313Z,64.97
2023-05-19T19:26:02.692Z,65.03
2023-05-19T19:31:12.123Z,65.15
2023-05-19T19:36:19.288Z,65.26
2023-05-19T19:41:26.868Z,65.28
2023-05-19T19:46:34.023Z,65.47
2023-05-19T19:51:41.298Z,65.33
2023-05-19T19:56:48.712Z,65.49
2023-05-19T20:01:56.033Z,65.56
2023-05-19T20:07:03.352Z,65.63
2023-05-19T20:12:11.301Z,65.75
2023-05-19T20:17:18.716Z,65.92
2023-05-19T20:22:26.180Z,66.01
2023-05-19T20:27:37.070Z,66.18
2023-05-19T20:32:47.814Z,66.22
2023-05-19T20:38:03.822Z,66.24
2023-05-19T20:43:11.508Z,66.33
2023-05-19T20:48:18.832Z,66.44
2023-05-19T20:53:30.824Z,66.51
2023-05-19T20:58:42.024Z,66.63
2023-05-19T21:03:50.657Z,66.78
2023-05-19T21:08:58.236Z,66.88
2023-05-19T21:14:06.158Z,66.92
2023-05-19T21:19:16.527Z,67.07
2023-05-19T21:24:23.691Z,67.19
2023-05-19T21:29:30.811Z,67.22
2023-05-19T21:34:39.099Z,67.24
2023-05-19T21:39:46.363Z,67.29
2023-05-19T21:44:53.533Z,67.51
2023-05-19T21:50:00.653Z,67.59
2023-05-19T21:55:10.566Z,67.55
2023-05-19T22:00:18.625Z,67.53
2023-05-19T22:05:25.882Z,67.70
2023-05-19T22:10:33.252Z,67.63
2023-05-19T22:15:42.022Z,67.84
2023-05-19T22:20:49.275Z,67.82
2023-05-19T22:25:56.384Z,67.90
2023-05-19T22:31:03.539Z,67.90
2023-05-19T22:36:11.387Z,67.95
2023-05-19T22:41:18.611Z,67.99
2023-05-19T22:46:45.345Z,68.13
2023-05-19T22:51:52.889Z,67.99
2023-05-19T22:57:00.229Z,68.09
2023-05-19T23:02:07.935Z,68.32
2023-05-19T23:07:15.093Z,68.50
2023-05-19T23:12:22.212Z,68.61
2023-05-19T23:17:29.511Z,68.46
2023-05-19T23:22:36.687Z,68.58
2023-05-19T23:27:43.869Z,68.70
2023-05-19T23:32:50.961Z,68.66
2023-05-19T23:37:58.155Z,68.60
2023-05-19T23:43:05.334Z,68.71
2023-05-19T23:48:12.580Z,68.98
2023-05-19T23:53:20.042Z,68.89
2023-05-19T23:58:27.420Z,69.03
